createdAt,value
2017-11-19T00:00:15.806Z,99386.82
2017-11-19T00:02:43.282Z,99390.66
2017-11-19T00:05:15.193Z,99383.02
2017-11-19T00:07:42.688Z,99377.11
2017-11-19T00:10:10.216Z,99372.02
2017-11-19T00:12:37.679Z,99371.20
2017-11-19T00:15:05.153Z,99382.66
2017-11-19T00:17:32.661Z,99380.08
2017-11-19T00:20:00.128Z,99377.10
2017-11-19T00:22:28.010Z,99398.28
2017-11-19T00:24:55.478Z,99379.26
2017-11-19T00:27:22.949Z,99397.44
2017-11-19T00:29:50.522Z,99379.66
2017-11-19T00:32:19.185Z,99383.08
2017-11-19T00:34:46.663Z,99379.68
2017-11-19T00:37:14.139Z,99393.20
2017-11-19T00:39:41.649Z,99382.22
2017-11-19T00:42:09.161Z,99374.17
2017-11-19T00:44:36.625Z,99375.02
2017-11-19T00:47:04.084Z,99361.06
2017-11-19T00:49:31.539Z,99394.09
2017-11-19T00:51:59.193Z,99381.81
2017-11-19T00:54:29.639Z,99365.30
2017-11-19T00:56:57.213Z,99360.64
2017-11-19T00:59:26.728Z,99371.23
2017-11-19T01:01:54.270Z,99363.63
2017-11-19T01:04:22.598Z,99372.94
2017-11-19T01:06:50.103Z,99371.23
2017-11-19T01:09:18.681Z,99378.03
2017-11-19T01:11:46.193Z,99377.17
2017-11-19T01:14:13.733Z,99366.17
2017-11-19T01:16:41.277Z,99370.84
2017-11-19T01:19:08.756Z,99374.64
2017-11-19T01:21:36.260Z,99363.63
2017-11-19T01:24:03.754Z,99358.55
2017-11-19T01:29:06.768Z,99344.16
2017-11-19T01:31:34.486Z,99361.94
2017-11-19T01:34:05.031Z,99347.52
2017-11-19T01:36:32.523Z,99336.52
2017-11-19T01:39:00.857Z,99337.39
2017-11-19T01:41:28.741Z,99342.05
2017-11-19T01:43:56.425Z,99336.53
2017-11-19T01:46:24.020Z,99338.66
2017-11-19T01:48:51.529Z,99323.83
2017-11-19T01:51:19.826Z,99329.35
2017-11-19T01:53:47.994Z,99322.16
2017-11-19T01:56:17.296Z,99360.23
2017-11-19T01:58:44.794Z,99324.67
2017-11-19T02:01:12.274Z,99304.37
2017-11-19T02:03:39.747Z,99312.41
2017-11-19T02:06:07.205Z,99290.82
2017-11-19T02:08:36.112Z,99281.50
2017-11-19T02:11:03.617Z,99284.45
2017-11-19T02:13:31.671Z,99281.08
2017-11-19T02:15:59.199Z,99286.15
2017-11-19T02:18:29.618Z,99284.45
2017-11-19T02:20:57.247Z,99283.61
2017-11-19T02:23:24.704Z,99286.14
2017-11-19T02:25:52.212Z,99262.02
2017-11-19T02:28:19.865Z,99277.28
2017-11-19T02:30:51.888Z,99274.73
2017-11-19T02:33:19.426Z,99275.55
2017-11-19T02:35:47.960Z,99263.71
2017-11-19T02:38:16.369Z,99267.52
2017-11-19T02:40:43.833Z,99267.95
2017-11-19T02:43:13.028Z,99267.10
2017-11-19T02:45:40.776Z,99256.95
2017-11-19T02:48:08.284Z,99255.66
2017-11-19T02:50:35.729Z,99252.73
2017-11-19T02:53:03.224Z,99246.78
2017-11-19T02:55:30.845Z,99251.88
2017-11-19T02:57:58.379Z,99254.85
2017-11-19T03:00:28.235Z,99245.52
2017-11-19T03:02:56.028Z,99258.22
2017-11-19T03:05:24.161Z,99251.02
2017-11-19T03:07:51.764Z,99269.65
2017-11-19T03:10:19.296Z,99250.17
2017-11-19T03:12:46.754Z,99255.67
2017-11-19T03:15:14.279Z,99251.03
2017-11-19T03:17:41.745Z,99253.14
2017-11-19T03:20:09.229Z,99248.06
2017-11-19T03:22:36.837Z,99249.34
2017-11-19T03:25:04.363Z,99254.83
2017-11-19T03:27:31.840Z,99233.69
2017-11-19T03:29:59.304Z,99258.66
2017-11-19T03:32:26.771Z,99256.97
2017-11-19T03:34:54.231Z,99253.14
2017-11-19T03:37:21.698Z,99249.34
2017-11-19T03:39:49.167Z,99256.96
2017-11-19T03:42:16.662Z,99243.84
2017-11-19T03:44:44.117Z,99237.10
2017-11-19T03:47:11.583Z,99248.94
2017-11-19T03:49:39.074Z,99244.72
2017-11-19T03:52:06.528Z,99243.86
2017-11-19T03:54:34.030Z,99242.18
2017-11-19T03:57:01.497Z,99239.20
2017-11-19T03:59:28.957Z,99229.04
2017-11-19T04:01:56.502Z,99232.45
2017-11-19T04:04:23.958Z,99222.30
2017-11-19T04:06:51.475Z,99233.72
2017-11-19T04:09:18.984Z,99237.94
2017-11-19T04:11:46.452Z,99228.63
2017-11-19T04:14:14.110Z,99212.98
2017-11-19T04:16:41.588Z,99239.65
2017-11-19T04:19:09.045Z,99237.09
2017-11-19T04:21:36.494Z,99230.36
2017-11-19T04:24:04.060Z,99241.75
2017-11-19T04:26:31.669Z,99236.24
2017-11-19T04:28:59.140Z,99237.95
2017-11-19T04:31:26.608Z,99234.55
2017-11-19T04:33:54.068Z,99237.95
2017-11-19T04:36:21.545Z,99221.02
2017-11-19T04:38:49.018Z,99230.31
2017-11-19T04:41:16.467Z,99229.06
2017-11-19T04:43:43.943Z,99218.88
2017-11-19T04:46:11.405Z,99220.14
2017-11-19T04:48:38.872Z,99227.76
2017-11-19T04:51:06.323Z,99216.74
2017-11-19T04:53:33.777Z,99220.98
2017-11-19T04:56:02.143Z,99225.64
2017-11-19T04:58:29.599Z,99226.05
2017-11-19T05:00:57.077Z,99225.64
2017-11-19T05:03:24.536Z,99223.50
2017-11-19T05:05:52.016Z,99217.58
2017-11-19T05:08:19.798Z,99222.69
2017-11-19T05:10:47.244Z,99221.36
2017-11-19T05:13:14.711Z,99226.89
2017-11-19T05:15:42.188Z,99234.95
2017-11-19T05:18:09.653Z,99232.77
2017-11-19T05:20:37.124Z,99232.78
2017-11-19T05:23:04.575Z,99232.75
2017-11-19T05:25:32.038Z,99224.31
2017-11-19T05:27:59.489Z,99229.41
2017-11-19T05:30:28.754Z,99220.05
2017-11-19T05:32:56.222Z,99224.22
2017-11-19T05:35:23.709Z,99217.48
2017-11-19T05:37:53.944Z,99216.24
2017-11-19T05:40:21.420Z,99216.27
2017-11-19T05:42:49.598Z,99222.59
2017-11-19T05:45:17.090Z,99216.64
2017-11-19T05:47:44.553Z,99220.88
2017-11-19T05:50:12.011Z,99222.97
2017-11-19T05:52:39.493Z,99219.58
2017-11-19T05:55:07.096Z,99209.84
2017-11-19T05:57:34.553Z,99211.16
2017-11-19T06:00:02.007Z,99217.47
2017-11-19T06:02:29.462Z,99222.98
2017-11-19T06:04:56.922Z,99211.55
2017-11-19T06:07:24.377Z,99212.80
2017-11-19T06:09:51.830Z,99203.90
2017-11-19T06:12:19.329Z,99230.58
2017-11-19T06:14:46.786Z,99223.39
2017-11-19T06:17:14.248Z,99228.06
2017-11-19T06:19:41.724Z,99245.41
2017-11-19T06:22:09.182Z,99234.80
2017-11-19T06:24:36.646Z,99233.55
2017-11-19T06:27:04.176Z,99229.73
2017-11-19T06:29:31.634Z,99228.87
2017-11-19T06:31:59.088Z,99220.34
2017-11-19T06:34:26.551Z,99229.28
2017-11-19T06:36:54.061Z,99223.34
2017-11-19T06:39:21.555Z,99214.02
2017-11-19T06:41:49.024Z,99219.13
2017-11-19T06:44:16.550Z,99228.06
2017-11-19T06:46:44.045Z,99221.25
2017-11-19T06:49:11.498Z,99215.72
2017-11-19T06:51:38.961Z,99219.11
2017-11-19T06:54:06.684Z,99210.20
2017-11-19T06:56:35.961Z,99209.80
2017-11-19T06:59:03.615Z,99217.00
2017-11-19T07:01:31.265Z,99211.06
2017-11-19T07:03:58.722Z,99199.20
2017-11-19T07:06:30.624Z,99203.84
2017-11-19T07:08:58.106Z,99186.05
2017-11-19T07:11:25.577Z,99191.57
2017-11-19T07:13:53.034Z,99195.33
2017-11-19T07:16:20.498Z,99202.55
2017-11-19T07:18:47.977Z,99197.48
2017-11-19T07:21:16.759Z,99206.33
2017-11-19T07:23:44.208Z,99192.31
2017-11-19T07:26:11.684Z,99199.50
2017-11-19T07:28:39.150Z,99193.19
2017-11-19T07:31:06.644Z,99198.30
2017-11-19T07:33:34.179Z,99195.83
2017-11-19T07:36:01.660Z,99186.09
2017-11-19T07:38:29.314Z,99175.51
2017-11-19T07:40:56.816Z,99176.39
2017-11-19T07:43:24.339Z,99167.51
2017-11-19T07:45:52.571Z,99164.99
2017-11-19T07:48:20.029Z,99169.23
2017-11-19T07:50:47.531Z,99160.70
2017-11-19T07:53:15.000Z,99170.44
2017-11-19T07:55:42.463Z,99156.47
2017-11-19T07:58:09.949Z,99164.95
2017-11-19T08:00:37.444Z,99164.46
2017-11-19T08:03:04.937Z,99155.97
2017-11-19T08:05:32.476Z,99156.44
2017-11-19T08:07:59.926Z,99157.33
2017-11-19T08:10:27.402Z,99168.34
2017-11-19T08:12:54.851Z,99156.51
2017-11-19T08:15:22.354Z,99151.39
2017-11-19T08:17:49.807Z,99161.56
2017-11-19T08:20:18.545Z,99158.19
2017-11-19T08:22:46.035Z,99159.95
2017-11-19T08:25:13.496Z,99157.45
2017-11-19T08:27:40.952Z,99163.32
2017-11-19T08:30:08.460Z,99165.00
2017-11-19T08:32:36.609Z,99158.69
2017-11-19T08:35:04.060Z,99170.53
2017-11-19T08:37:31.542Z,99170.16
2017-11-19T08:39:59.003Z,99176.95
2017-11-19T08:42:28.223Z,99170.63
2017-11-19T08:44:55.707Z,99168.92
2017-11-19T08:47:23.190Z,99173.92
2017-11-19T08:49:50.635Z,99168.44
2017-11-19T08:52:18.311Z,99167.22
2017-11-19T08:54:46.712Z,99171.45
2017-11-19T08:57:14.214Z,99179.94
2017-11-19T08:59:41.687Z,99165.89
2017-11-19T09:02:09.142Z,99173.95
2017-11-19T09:04:36.628Z,99174.02
2017-11-19T09:07:04.134Z,99172.73
2017-11-19T09:09:31.576Z,99174.41
2017-11-19T09:11:59.031Z,99185.45
2017-11-19T09:14:26.517Z,99177.01
2017-11-19T09:16:54.048Z,99183.78
2017-11-19T09:19:21.509Z,99177.47
2017-11-19T09:21:48.980Z,99176.20
2017-11-19T09:24:16.442Z,99166.02
2017-11-19T09:26:43.897Z,99168.98
2017-11-19T09:29:11.417Z,99167.70
2017-11-19T09:31:38.898Z,99168.56
2017-11-19T09:34:06.420Z,99185.48
2017-11-19T09:36:33.922Z,99168.98
2017-11-19T09:39:01.406Z,99184.23
2017-11-19T09:41:28.862Z,99204.11
2017-11-19T09:43:56.383Z,99190.58
2017-11-19T09:46:23.847Z,99183.81
2017-11-19T09:48:51.879Z,99172.42
2017-11-19T09:51:19.367Z,99170.72
2017-11-19T09:53:46.821Z,99177.89
2017-11-19T09:56:16.202Z,99177.02
2017-11-19T09:58:43.713Z,99173.58
2017-11-19T10:01:11.854Z,99180.81
2017-11-19T10:03:39.355Z,99162.61
2017-11-19T10:06:06.873Z,99164.28
2017-11-19T10:08:36.311Z,99165.97
2017-11-19T10:11:03.801Z,99163.01
2017-11-19T10:13:31.337Z,99175.28
2017-11-19T10:15:58.833Z,99161.72
2017-11-19T10:18:27.137Z,99173.58
2017-11-19T10:20:54.595Z,99169.34
2017-11-19T10:23:22.113Z,99156.59
2017-11-19T10:25:49.604Z,99146.84
2017-11-19T10:28:17.368Z,99146.33
2017-11-19T10:30:46.298Z,99149.72
2017-11-19T10:33:13.773Z,99150.43
2017-11-19T10:35:41.240Z,99150.23
2017-11-19T10:38:08.811Z,99140.02
2017-11-19T10:40:36.256Z,99154.61
2017-11-19T10:43:04.652Z,99139.05
2017-11-19T10:45:32.303Z,99140.75
2017-11-19T10:47:59.767Z,99140.34
2017-11-19T10:50:27.204Z,99141.19
2017-11-19T10:52:54.673Z,99154.41
2017-11-19T10:55:22.133Z,99139.11
2017-11-19T10:57:49.638Z,99166.27
2017-11-19T11:00:17.118Z,99148.09
2017-11-19T11:02:44.593Z,99142.20
2017-11-19T11:05:13.070Z,99142.20
2017-11-19T11:07:40.534Z,99156.20
2017-11-19T11:10:08.037Z,99140.99
2017-11-19T11:12:35.509Z,99139.67
2017-11-19T11:15:02.987Z,99130.41
2017-11-19T11:17:30.447Z,99130.81
2017-11-19T11:19:57.904Z,99142.23
2017-11-19T11:22:25.362Z,99138.42
2017-11-19T11:24:53.129Z,99146.48
2017-11-19T11:27:20.588Z,99143.95
2017-11-19T11:29:48.043Z,99135.52
2017-11-19T11:32:15.664Z,99141.42
2017-11-19T11:34:43.329Z,99137.63
2017-11-19T11:37:10.834Z,99137.59
2017-11-19T11:39:38.276Z,99141.41
2017-11-19T11:42:05.740Z,99145.22
2017-11-19T11:44:33.489Z,99160.90
2017-11-19T11:47:00.998Z,99140.63
2017-11-19T11:49:28.483Z,99144.85
2017-11-19T11:51:55.946Z,99153.70
2017-11-19T11:54:23.402Z,99136.39
2017-11-19T11:56:50.865Z,99147.36
2017-11-19T11:59:18.329Z,99149.44
2017-11-19T12:01:45.814Z,99156.20
2017-11-19T12:04:13.333Z,99156.63
2017-11-19T12:06:40.805Z,99154.55
2017-11-19T12:09:08.282Z,99157.50
2017-11-19T12:11:35.789Z,99150.20
2017-11-19T12:14:03.298Z,99148.89
2017-11-19T12:16:30.757Z,99148.80
2017-11-19T12:18:58.241Z,99147.61
2017-11-19T12:21:25.850Z,99145.45
2017-11-19T12:23:53.353Z,99147.52
2017-11-19T12:26:20.836Z,99145.33
2017-11-19T12:28:48.321Z,99161.73
2017-11-19T12:31:15.804Z,99159.95
2017-11-19T12:33:43.261Z,99166.81
2017-11-19T12:36:10.730Z,99170.34
2017-11-19T12:38:42.683Z,99172.91
2017-11-19T12:41:10.152Z,99184.41
2017-11-19T12:43:37.603Z,99184.06
2017-11-19T12:46:05.114Z,99173.53
2017-11-19T12:48:34.010Z,99180.75
2017-11-19T12:51:01.501Z,99192.98
2017-11-19T12:53:29.059Z,99188.77
2017-11-19T12:55:56.533Z,99184.50
2017-11-19T12:58:24.019Z,99185.44
2017-11-19T13:00:51.490Z,99191.34
2017-11-19T13:03:19.695Z,99177.83
2017-11-19T13:05:47.211Z,99185.02
2017-11-19T13:08:14.787Z,99191.80
2017-11-19T13:10:42.330Z,99190.16
2017-11-19T13:13:09.796Z,99193.54
2017-11-19T13:15:37.270Z,99192.70
2017-11-19T13:18:04.752Z,99189.33
2017-11-19T13:20:33.310Z,99194.00
2017-11-19T13:23:00.841Z,99197.80
2017-11-19T13:25:28.306Z,99200.75
2017-11-19T13:27:55.820Z,99207.92
2017-11-19T13:30:23.281Z,99210.89
2017-11-19T13:32:50.769Z,99204.12
2017-11-19T13:35:18.238Z,99203.69
2017-11-19T13:37:45.697Z,99210.88
2017-11-19T13:40:13.176Z,99208.77
2017-11-19T13:42:43.177Z,99229.92
2017-11-19T13:45:10.719Z,99211.31
2017-11-19T13:47:38.175Z,99212.17
2017-11-19T13:50:05.737Z,99219.78
2017-11-19T13:52:34.540Z,99220.62
2017-11-19T13:55:02.097Z,99225.27
2017-11-19T13:57:29.648Z,99224.01
2017-11-19T13:59:57.144Z,99224.84
2017-11-19T14:02:24.589Z,99227.39
2017-11-19T14:04:52.144Z,99227.39
2017-11-19T14:07:19.740Z,99217.66
2017-11-19T14:09:47.301Z,99215.13
2017-11-19T14:12:14.869Z,99210.47
2017-11-19T14:14:42.531Z,99222.73
2017-11-19T14:17:10.018Z,99224.43
2017-11-19T14:19:37.523Z,99222.32
2017-11-19T14:22:05.045Z,99220.62
2017-11-19T14:24:33.087Z,99226.13
2017-11-19T14:27:00.579Z,99229.91
2017-11-19T14:29:28.038Z,99221.88
2017-11-19T14:31:55.543Z,99240.48
2017-11-19T14:34:23.013Z,99221.03
2017-11-19T14:36:51.060Z,99212.59
2017-11-19T14:39:19.938Z,99220.20
2017-11-19T14:41:47.403Z,99217.67
2017-11-19T14:44:14.975Z,99215.98
2017-11-19T14:46:47.001Z,99210.05
2017-11-19T14:49:15.537Z,99218.48
2017-11-19T14:51:43.042Z,99214.70
2017-11-19T14:54:10.503Z,99216.39
2017-11-19T14:56:37.988Z,99216.36
2017-11-19T14:59:05.502Z,99215.54
2017-11-19T15:01:33.002Z,99213.41
2017-11-19T15:04:00.460Z,99227.77
2017-11-19T15:06:29.897Z,99214.22
2017-11-19T15:08:57.364Z,99209.99
2017-11-19T15:11:24.924Z,99210.83
2017-11-19T15:13:52.406Z,99218.84
2017-11-19T15:16:19.892Z,99207.86
2017-11-19T15:18:47.514Z,99219.70
2017-11-19T15:21:15.174Z,99226.05
2017-11-19T15:23:42.645Z,99211.27
2017-11-19T15:26:10.155Z,99218.45
2017-11-19T15:28:39.427Z,99214.63
2017-11-19T15:31:06.956Z,99226.89
2017-11-19T15:33:34.413Z,99221.84
2017-11-19T15:36:01.951Z,99233.66
2017-11-19T15:38:29.406Z,99230.68
2017-11-19T15:40:57.464Z,99226.89
2017-11-19T15:43:24.938Z,99231.98
2017-11-19T15:45:52.486Z,99231.56
2017-11-19T15:48:20.035Z,99239.19
2017-11-19T15:50:47.879Z,99236.22
2017-11-19T15:53:16.090Z,99243.42
2017-11-19T15:55:43.663Z,99249.33
2017-11-19T15:58:12.200Z,99245.55
2017-11-19T16:00:39.711Z,99244.69
2017-11-19T16:03:07.236Z,99249.36
2017-11-19T16:05:34.779Z,99251.05
2017-11-19T16:08:03.726Z,99247.66
2017-11-19T16:10:31.233Z,99247.68
2017-11-19T16:12:59.237Z,99261.61
2017-11-19T16:15:27.149Z,99254.02
2017-11-19T16:17:54.674Z,99260.78
2017-11-19T16:20:22.974Z,99260.35
2017-11-19T16:22:51.148Z,99265.45
2017-11-19T16:25:18.701Z,99269.25
2017-11-19T16:27:46.237Z,99265.01
2017-11-19T16:30:13.750Z,99274.77
2017-11-19T16:32:41.251Z,99274.73
2017-11-19T16:35:08.817Z,99281.10
2017-11-19T16:37:36.284Z,99279.84
2017-11-19T16:40:03.739Z,99282.80
2017-11-19T16:42:31.335Z,99282.37
2017-11-19T16:44:58.842Z,99264.17
2017-11-19T16:47:26.291Z,99282.36
2017-11-19T16:49:53.828Z,99271.38
2017-11-19T16:52:21.277Z,99269.66
2017-11-19T16:54:49.501Z,99261.64
2017-11-19T16:57:17.986Z,99266.30
2017-11-19T16:59:45.459Z,99259.55
2017-11-19T17:02:12.956Z,99264.19
2017-11-19T17:04:40.450Z,99258.69
2017-11-19T17:07:07.923Z,99248.11
2017-11-19T17:09:35.407Z,99259.95
2017-11-19T17:12:03.757Z,99258.66
2017-11-19T17:14:31.298Z,99267.55
2017-11-19T17:16:58.799Z,99265.44
2017-11-19T17:19:26.330Z,99276.87
2017-11-19T17:21:53.880Z,99273.91
2017-11-19T17:24:21.383Z,99265.88
2017-11-19T17:26:48.894Z,99258.25
2017-11-19T17:29:16.345Z,99265.88
2017-11-19T17:31:43.811Z,99268.41
2017-11-19T17:34:11.311Z,99265.86
2017-11-19T17:36:38.835Z,99250.21
2017-11-19T17:39:06.318Z,99262.47
2017-11-19T17:41:33.814Z,99257.84
2017-11-19T17:44:01.276Z,99248.52
2017-11-19T17:46:28.753Z,99257.84
2017-11-19T17:48:56.226Z,99257.00
2017-11-19T17:53:59.889Z,99251.05
2017-11-19T17:56:27.349Z,99246.83
2017-11-19T17:58:54.808Z,99256.13
2017-11-19T18:01:22.292Z,99259.50
2017-11-19T18:03:49.845Z,99292.09
2017-11-19T18:06:17.331Z,99302.67
2017-11-19T18:08:44.783Z,99278.13
2017-11-19T18:11:12.254Z,99294.64
2017-11-19T18:13:41.966Z,99273.06
2017-11-19T18:16:09.635Z,99269.25
2017-11-19T18:18:37.100Z,99280.27
2017-11-19T18:21:04.609Z,99269.25
2017-11-19T18:23:32.087Z,99277.70
2017-11-19T18:25:59.587Z,99294.64
2017-11-19T18:28:27.249Z,99278.11
2017-11-19T18:30:54.779Z,99275.16
2017-11-19T18:33:22.349Z,99287.85
2017-11-19T18:35:49.814Z,99275.19
2017-11-19T18:38:17.338Z,99265.86
2017-11-19T18:40:44.935Z,99306.05
2017-11-19T18:43:12.466Z,99284.06
2017-11-19T18:45:40.053Z,99292.08
2017-11-19T18:48:07.655Z,99275.17
2017-11-19T18:50:35.206Z,99278.13
2017-11-19T18:53:02.697Z,99277.30
2017-11-19T18:55:30.167Z,99292.94
2017-11-19T18:57:57.650Z,99251.06
2017-11-19T19:00:27.051Z,99270.52
2017-11-19T19:02:54.560Z,99277.70
2017-11-19T19:05:22.058Z,99285.75
2017-11-19T19:07:49.554Z,99276.86
2017-11-19T19:10:18.231Z,99289.55
2017-11-19T19:12:45.725Z,99295.88
2017-11-19T19:15:13.362Z,99273.05
2017-11-19T19:17:41.966Z,99271.77
2017-11-19T19:20:09.689Z,99267.98
2017-11-19T19:22:39.715Z,99262.49
2017-11-19T19:25:07.206Z,99275.18
2017-11-19T19:27:34.767Z,99282.34
2017-11-19T19:30:02.301Z,99293.33
2017-11-19T19:32:29.817Z,99273.06
2017-11-19T19:34:57.375Z,99286.56
2017-11-19T19:37:24.852Z,99292.91
2017-11-19T19:39:56.250Z,99284.48
2017-11-19T19:42:23.777Z,99282.78
2017-11-19T19:44:51.313Z,99275.58
2017-11-19T19:47:18.823Z,99278.13
2017-11-19T19:49:46.300Z,99280.67
2017-11-19T19:52:13.855Z,99273.90
2017-11-19T19:54:41.351Z,99269.67
2017-11-19T19:57:08.845Z,99292.08
2017-11-19T19:59:36.321Z,99272.19
2017-11-19T20:02:03.800Z,99289.97
2017-11-19T20:04:31.260Z,99288.28
2017-11-19T20:06:58.742Z,99268.81
2017-11-19T20:09:26.268Z,99274.31
2017-11-19T20:11:53.719Z,99284.90
2017-11-19T20:14:21.814Z,99273.90
2017-11-19T20:16:49.327Z,99278.55
2017-11-19T20:19:16.779Z,99281.91
2017-11-19T20:21:44.449Z,99256.15
2017-11-19T20:24:11.938Z,99267.97
2017-11-19T20:26:39.859Z,99301.81
2017-11-19T20:29:07.867Z,99263.34
2017-11-19T20:31:35.621Z,99308.59
2017-11-19T20:34:03.114Z,99286.58
2017-11-19T20:36:31.409Z,99267.98
2017-11-19T20:38:58.893Z,99270.95
2017-11-19T20:41:26.388Z,99292.07
2017-11-19T20:43:53.970Z,99290.41
2017-11-19T20:46:21.461Z,99273.46
2017-11-19T20:48:48.960Z,99262.48
2017-11-19T20:51:16.557Z,99261.22
2017-11-19T20:53:44.089Z,99269.68
2017-11-19T20:56:11.628Z,99259.94
2017-11-19T20:58:39.150Z,99286.59
2017-11-19T21:01:06.628Z,99263.34
2017-11-19T21:03:34.145Z,99270.52
2017-11-19T21:06:01.737Z,99296.74
2017-11-19T21:08:29.207Z,99252.77
2017-11-19T21:10:56.722Z,99276.87
2017-11-19T21:13:25.651Z,99272.64
2017-11-19T21:15:53.328Z,99278.14
2017-11-19T21:18:20.820Z,99281.51
2017-11-19T21:20:49.213Z,99277.72
2017-11-19T21:23:16.765Z,99293.78
2017-11-19T21:25:44.404Z,99283.22
2017-11-19T21:28:13.247Z,99268.39
2017-11-19T21:30:40.887Z,99260.38
2017-11-19T21:33:08.400Z,99267.97
2017-11-19T21:35:35.920Z,99265.44
2017-11-19T21:38:03.462Z,99278.97
2017-11-19T21:40:30.946Z,99280.66
2017-11-19T21:42:59.157Z,99295.48
2017-11-19T21:45:26.656Z,99314.08
2017-11-19T21:47:54.609Z,99270.09
2017-11-19T21:50:22.149Z,99282.36
2017-11-19T21:52:49.645Z,99274.75
2017-11-19T21:55:17.144Z,99273.49
2017-11-19T21:57:44.633Z,99275.19
2017-11-19T22:00:12.182Z,99284.48
2017-11-19T22:02:39.672Z,99302.23
2017-11-19T22:05:07.136Z,99286.19
2017-11-19T22:07:34.638Z,99277.30
2017-11-19T22:10:02.122Z,99309.02
2017-11-19T22:12:30.557Z,99271.80
2017-11-19T22:14:58.054Z,99321.27
2017-11-19T22:17:25.807Z,99280.69
2017-11-19T22:19:53.325Z,99300.13
2017-11-19T22:22:20.804Z,99290.38
2017-11-19T22:24:48.321Z,99298.00
2017-11-19T22:27:15.932Z,99295.03
2017-11-19T22:29:43.424Z,99301.80
2017-11-19T22:32:10.886Z,99336.05
2017-11-19T22:34:38.377Z,99312.36
2017-11-19T22:37:05.857Z,99306.47
2017-11-19T22:39:33.309Z,99295.46
2017-11-19T22:42:00.822Z,99309.00
2017-11-19T22:44:28.376Z,99305.59
2017-11-19T22:46:55.866Z,99298.83
2017-11-19T22:49:23.319Z,99291.65
2017-11-19T22:51:51.202Z,99308.55
2017-11-19T22:54:18.737Z,99288.25
2017-11-19T22:56:46.193Z,99286.58
2017-11-19T22:59:13.737Z,99289.52
2017-11-19T23:01:41.218Z,99286.97
2017-11-19T23:04:08.775Z,99284.86
2017-11-19T23:06:36.282Z,99293.34
2017-11-19T23:09:04.144Z,99295.45
2017-11-19T23:11:31.611Z,99320.80
2017-11-19T23:13:59.205Z,99289.97
2017-11-19T23:16:26.666Z,99292.89
2017-11-19T23:18:54.166Z,99292.06
2017-11-19T23:21:21.669Z,99322.50
2017-11-19T23:23:49.125Z,99272.20
2017-11-19T23:26:16.905Z,99297.56
2017-11-19T23:28:44.403Z,99292.50
2017-11-19T23:31:11.859Z,99285.73
2017-11-19T23:33:39.304Z,99289.53
2017-11-19T23:36:07.916Z,99282.36
2017-11-19T23:38:35.604Z,99292.49
2017-11-19T23:41:03.066Z,99322.94
2017-11-19T23:43:30.558Z,99283.63
2017-11-19T23:45:58.019Z,99333.09
2017-11-19T23:48:25.636Z,99308.16
2017-11-19T23:50:53.174Z,99270.09
2017-11-19T23:53:20.659Z,99287.88
2017-11-19T23:55:48.107Z,99266.72
2017-11-19T23:58:16.289Z,99285.33
